createdAt,value
2018-06-22T00:01:38.618Z,41.17
2018-06-22T00:04:09.783Z,41.10
2018-06-22T00:06:40.250Z,40.53
2018-06-22T00:09:11.523Z,40.80
2018-06-22T00:11:41.643Z,40.27
2018-06-22T00:14:11.868Z,41.00
2018-06-22T00:16:42.293Z,40.50
2018-06-22T00:19:12.438Z,40.90
2018-06-22T00:21:43.190Z,39.93
2018-06-22T00:24:13.476Z,40.60
2018-06-22T00:26:43.743Z,39.70
2018-06-22T00:29:14.026Z,40.37
2018-06-22T00:31:44.382Z,39.77
2018-06-22T00:34:14.647Z,40.63
2018-06-22T00:36:44.843Z,41.43
2018-06-22T00:39:15.007Z,40.10
2018-06-22T00:41:45.511Z,40.33
2018-06-22T00:44:16.007Z,40.30
2018-06-22T00:46:47.329Z,41.00
2018-06-22T00:49:17.528Z,40.77
2018-06-22T00:51:47.670Z,41.00
2018-06-22T00:54:18.777Z,40.77
2018-06-22T00:56:49.304Z,40.20
2018-06-22T00:59:20.421Z,40.00
2018-06-22T01:01:50.836Z,40.43
2018-06-22T01:04:21.198Z,40.83
2018-06-22T01:06:52.676Z,41.00
2018-06-22T01:09:23.438Z,40.37
2018-06-22T01:11:54.001Z,40.57
2018-06-22T01:14:24.196Z,40.67
2018-06-22T01:16:55.094Z,40.33
2018-06-22T01:19:25.691Z,39.97
2018-06-22T01:21:56.269Z,40.57
2018-06-22T01:24:29.736Z,40.87
2018-06-22T01:27:00.212Z,40.33
2018-06-22T01:29:30.283Z,40.67
2018-06-22T01:32:01.891Z,39.93
2018-06-22T01:34:32.572Z,40.20
2018-06-22T01:37:02.796Z,40.03
2018-06-22T01:39:33.377Z,40.90
2018-06-22T01:42:04.184Z,40.20
2018-06-22T01:44:34.365Z,41.07
2018-06-22T01:47:04.854Z,39.93
2018-06-22T01:49:36.419Z,40.33
2018-06-22T01:52:06.578Z,40.17
2018-06-22T01:54:37.517Z,39.70
2018-06-22T01:57:07.358Z,40.57
2018-06-22T01:59:37.776Z,40.80
2018-06-22T02:02:08.326Z,40.23
2018-06-22T02:04:38.871Z,39.80
2018-06-22T02:07:09.167Z,40.93
2018-06-22T02:09:39.417Z,40.40
2018-06-22T02:12:09.542Z,40.57
2018-06-22T02:14:42.818Z,40.40
2018-06-22T02:17:13.243Z,39.83
2018-06-22T02:19:43.493Z,39.93
2018-06-22T02:22:14.670Z,41.00
2018-06-22T02:24:45.173Z,41.60
2018-06-22T02:27:15.267Z,41.60
2018-06-22T02:29:45.321Z,41.07
2018-06-22T02:32:15.388Z,41.20
2018-06-22T02:34:45.491Z,40.63
2018-06-22T02:37:16.408Z,40.33
2018-06-22T02:39:46.632Z,41.20
2018-06-22T02:42:16.830Z,40.83
2018-06-22T02:44:47.097Z,40.97
2018-06-22T02:47:17.414Z,40.03
2018-06-22T02:49:47.661Z,40.33
2018-06-22T02:52:17.892Z,41.10
2018-06-22T02:54:47.971Z,40.53
2018-06-22T02:57:18.123Z,39.50
2018-06-22T02:59:48.630Z,40.73
2018-06-22T03:02:19.029Z,40.70
2018-06-22T03:04:48.807Z,40.73
2018-06-22T03:07:19.492Z,40.60
2018-06-22T03:09:49.474Z,39.67
2018-06-22T03:12:19.680Z,41.17
2018-06-22T03:14:49.770Z,41.13
2018-06-22T03:17:20.229Z,40.77
2018-06-22T03:19:50.370Z,40.43
2018-06-22T03:22:21.521Z,40.03
2018-06-22T03:24:51.850Z,40.33
2018-06-22T03:27:21.939Z,40.17
2018-06-22T03:29:52.293Z,40.67
2018-06-22T03:32:22.684Z,41.30
2018-06-22T03:34:52.657Z,40.03
2018-06-22T03:37:22.859Z,40.57
2018-06-22T03:39:53.061Z,39.63
2018-06-22T03:42:23.314Z,40.40
2018-06-22T03:44:53.557Z,40.47
2018-06-22T03:47:23.927Z,40.33
2018-06-22T03:49:54.043Z,40.10
2018-06-22T03:52:24.584Z,39.97
2018-06-22T03:54:55.352Z,39.57
2018-06-22T03:57:25.940Z,40.60
2018-06-22T03:59:56.104Z,40.33
2018-06-22T04:02:26.363Z,40.33
2018-06-22T04:04:56.836Z,40.53
2018-06-22T04:07:27.358Z,40.57
2018-06-22T04:09:57.669Z,40.07
2018-06-22T04:12:27.945Z,40.23
2018-06-22T04:14:58.298Z,39.77
2018-06-22T04:17:28.286Z,40.80
2018-06-22T04:19:58.531Z,41.40
2018-06-22T04:22:28.810Z,40.37
2018-06-22T04:24:59.030Z,40.63
2018-06-22T04:27:29.274Z,40.10
2018-06-22T04:29:59.651Z,40.93
2018-06-22T04:32:30.809Z,40.50
2018-06-22T04:35:01.383Z,40.47
2018-06-22T04:37:32.303Z,40.50
2018-06-22T04:40:02.527Z,40.73
2018-06-22T04:42:32.618Z,39.90
2018-06-22T04:45:03.368Z,39.60
2018-06-22T04:47:34.017Z,39.93
2018-06-22T04:50:04.395Z,40.47
2018-06-22T04:52:35.005Z,41.17
2018-06-22T04:55:05.181Z,40.67
2018-06-22T04:57:35.477Z,40.57
2018-06-22T05:00:06.021Z,39.70
2018-06-22T05:02:36.057Z,40.03
2018-06-22T05:05:06.634Z,40.53
2018-06-22T05:07:36.968Z,40.63
2018-06-22T05:10:07.386Z,41.43
2018-06-22T05:12:38.152Z,40.67
2018-06-22T05:15:08.450Z,40.70
2018-06-22T05:17:38.744Z,40.63
2018-06-22T05:20:08.829Z,41.37
2018-06-22T05:22:39.846Z,41.47
2018-06-22T05:25:10.126Z,41.13
2018-06-22T05:27:40.479Z,40.77
2018-06-22T05:30:10.674Z,41.10
2018-06-22T05:32:41.834Z,41.37
2018-06-22T05:35:11.930Z,40.80
2018-06-22T05:37:42.810Z,40.53
2018-06-22T05:40:13.029Z,40.67
2018-06-22T05:42:43.757Z,40.47
2018-06-22T05:45:14.085Z,40.90
2018-06-22T05:47:44.642Z,40.07
2018-06-22T05:50:15.369Z,41.80
2018-06-22T05:52:46.502Z,40.50
2018-06-22T05:55:16.616Z,40.57
2018-06-22T05:57:47.062Z,40.53
2018-06-22T06:00:17.411Z,41.70
2018-06-22T06:02:47.817Z,40.67
2018-06-22T06:05:18.752Z,40.53
2018-06-22T06:07:49.021Z,41.57
2018-06-22T06:10:19.935Z,41.07
2018-06-22T06:12:50.411Z,40.57
2018-06-22T06:15:21.003Z,41.40
2018-06-22T06:17:52.015Z,40.97
2018-06-22T06:20:22.155Z,41.40
2018-06-22T06:22:52.465Z,41.40
2018-06-22T06:25:22.996Z,40.57
2018-06-22T06:27:53.213Z,40.73
2018-06-22T06:30:23.480Z,42.17
2018-06-22T06:32:53.662Z,40.57
2018-06-22T06:35:24.106Z,41.10
2018-06-22T06:37:54.305Z,40.73
2018-06-22T06:40:24.909Z,40.53
2018-06-22T06:42:55.195Z,41.00
2018-06-22T06:45:25.553Z,41.23
2018-06-22T06:47:56.088Z,41.00
2018-06-22T06:50:26.994Z,41.20
2018-06-22T06:52:57.526Z,41.03
2018-06-22T06:55:28.105Z,41.17
2018-06-22T06:57:58.226Z,41.40
2018-06-22T07:00:29.137Z,42.80
2018-06-22T07:02:59.306Z,41.60
2018-06-22T07:05:29.578Z,40.73
2018-06-22T07:08:00.262Z,41.67
2018-06-22T07:10:31.004Z,41.53
2018-06-22T07:13:01.760Z,40.97
2018-06-22T07:15:36.739Z,41.73
2018-06-22T07:18:07.582Z,41.53
2018-06-22T07:20:38.486Z,41.57
2018-06-22T07:23:09.968Z,41.47
2018-06-22T07:25:40.945Z,41.50
2018-06-22T07:28:11.524Z,41.80
2018-06-22T07:30:41.649Z,42.00
2018-06-22T07:33:12.089Z,40.97
2018-06-22T07:35:42.436Z,40.97
2018-06-22T07:38:12.513Z,41.23
2018-06-22T07:40:42.967Z,41.40
2018-06-22T07:43:13.506Z,41.50
2018-06-22T07:45:43.765Z,41.67
2018-06-22T07:48:14.299Z,41.30
2018-06-22T07:50:45.122Z,41.70
2018-06-22T07:53:16.048Z,41.90
2018-06-22T07:55:47.247Z,41.17
2018-06-22T07:58:17.799Z,41.10
2018-06-22T08:00:49.619Z,41.33
2018-06-22T08:03:20.333Z,41.17
2018-06-22T08:05:51.679Z,41.43
2018-06-22T08:08:22.326Z,41.50
2018-06-22T08:10:53.325Z,41.00
2018-06-22T08:13:24.950Z,42.00
2018-06-22T08:15:56.714Z,41.83
2018-06-22T08:18:26.988Z,41.97
2018-06-22T08:20:57.374Z,42.10
2018-06-22T08:23:28.586Z,42.30
2018-06-22T08:25:59.435Z,41.77
2018-06-22T08:28:30.680Z,42.13
2018-06-22T08:31:01.203Z,41.67
2018-06-22T08:33:31.864Z,41.50
2018-06-22T08:36:02.412Z,41.13
2018-06-22T08:38:32.872Z,43.80
2018-06-22T08:41:03.218Z,41.93
2018-06-22T08:43:33.489Z,41.13
2018-06-22T08:46:03.971Z,41.80
2018-06-22T08:48:34.419Z,41.43
2018-06-22T08:51:04.910Z,41.67
2018-06-22T08:53:35.599Z,41.80
2018-06-22T08:56:06.035Z,42.30
2018-06-22T08:58:36.252Z,41.40
2018-06-22T09:01:07.072Z,41.27
2018-06-22T09:03:37.612Z,42.37
2018-06-22T09:06:07.849Z,41.60
2018-06-22T09:08:38.681Z,41.37
2018-06-22T09:11:09.392Z,41.50
2018-06-22T09:13:40.943Z,41.80
2018-06-22T09:16:11.275Z,41.90
2018-06-22T09:18:41.711Z,43.60
2018-06-22T09:21:15.788Z,41.87
2018-06-22T09:23:46.046Z,42.07
2018-06-22T09:26:17.169Z,42.63
2018-06-22T09:28:47.724Z,42.87
2018-06-22T09:31:19.221Z,43.13
2018-06-22T09:33:50.090Z,41.97
2018-06-22T09:36:20.324Z,42.93
2018-06-22T09:38:50.804Z,42.67
2018-06-22T09:41:21.169Z,42.43
2018-06-22T09:43:51.524Z,42.50
2018-06-22T09:46:22.036Z,42.37
2018-06-22T09:48:52.402Z,42.60
2018-06-22T09:51:22.748Z,41.97
2018-06-22T09:53:53.156Z,42.90
2018-06-22T09:56:23.887Z,42.80
2018-06-22T09:58:54.558Z,42.23
2018-06-22T10:01:25.015Z,42.37
2018-06-22T10:03:55.834Z,43.50
2018-06-22T10:06:26.081Z,43.10
2018-06-22T10:08:57.147Z,43.27
2018-06-22T10:11:27.893Z,42.57
2018-06-22T10:13:58.562Z,42.83
2018-06-22T10:16:29.420Z,42.47
2018-06-22T10:19:00.685Z,42.93
2018-06-22T10:21:30.887Z,43.13
2018-06-22T10:24:01.548Z,43.10
2018-06-22T10:26:32.431Z,43.47
2018-06-22T10:29:03.097Z,43.20
2018-06-22T10:31:33.508Z,42.97
2018-06-22T10:34:03.707Z,43.20
2018-06-22T10:36:34.279Z,44.50
2018-06-22T10:39:07.287Z,46.67
2018-06-22T10:41:37.948Z,46.40
2018-06-22T10:44:08.619Z,53.40
2018-06-22T10:46:39.025Z,46.20
2018-06-22T10:49:09.369Z,47.73
2018-06-22T10:51:39.659Z,50.87
2018-06-22T10:54:09.876Z,45.40
2018-06-22T10:56:46.385Z,44.80
2018-06-22T10:59:17.156Z,42.93
2018-06-22T11:01:47.098Z,43.87
2018-06-22T11:04:17.624Z,44.13
2018-06-22T11:06:47.798Z,43.30
2018-06-22T11:09:18.410Z,43.13
2018-06-22T11:11:48.745Z,43.03
2018-06-22T11:14:19.370Z,44.43
2018-06-22T11:16:50.124Z,42.80
2018-06-22T11:19:20.369Z,42.53
2018-06-22T11:21:51.441Z,43.00
2018-06-22T11:24:22.003Z,43.33
2018-06-22T11:26:52.413Z,43.33
2018-06-22T11:29:22.511Z,43.27
2018-06-22T11:31:53.781Z,42.90
2018-06-22T11:34:24.420Z,43.17
2018-06-22T11:36:54.975Z,42.57
2018-06-22T11:39:25.878Z,42.97
2018-06-22T11:41:56.494Z,42.93
2018-06-22T11:44:27.309Z,43.27
2018-06-22T11:46:58.400Z,42.53
2018-06-22T11:49:28.592Z,42.97
2018-06-22T11:51:58.989Z,42.53
2018-06-22T11:54:29.111Z,42.20
2018-06-22T11:56:59.269Z,42.90
2018-06-22T11:59:30.010Z,43.53
2018-06-22T12:02:00.395Z,43.83
2018-06-22T12:04:30.386Z,42.57
2018-06-22T12:07:00.711Z,42.63
2018-06-22T12:09:30.994Z,43.07
2018-06-22T12:12:01.335Z,43.27
2018-06-22T12:14:32.183Z,43.13
2018-06-22T12:17:02.986Z,42.80
2018-06-22T12:19:32.996Z,43.37
2018-06-22T12:22:03.321Z,43.03
2018-06-22T12:24:34.057Z,43.27
2018-06-22T12:27:04.445Z,42.23
2018-06-22T12:29:34.601Z,43.67
2018-06-22T12:32:05.277Z,43.00
2018-06-22T12:34:35.374Z,43.27
2018-06-22T12:37:07.800Z,44.93
2018-06-22T12:39:38.362Z,43.93
2018-06-22T12:42:08.548Z,42.87
2018-06-22T12:44:38.854Z,43.87
2018-06-22T12:47:09.865Z,42.77
2018-06-22T12:49:40.137Z,44.30
2018-06-22T12:52:10.293Z,43.03
2018-06-22T12:54:40.581Z,44.20
2018-06-22T12:57:10.756Z,43.50
2018-06-22T12:59:41.129Z,44.77
2018-06-22T13:02:11.504Z,43.70
2018-06-22T13:04:41.575Z,43.73
2018-06-22T13:07:11.785Z,44.13
2018-06-22T13:09:42.313Z,43.83
2018-06-22T13:12:13.237Z,43.43
2018-06-22T13:14:44.746Z,43.67
2018-06-22T13:17:15.228Z,43.83
2018-06-22T13:19:45.776Z,44.27
2018-06-22T13:22:15.904Z,43.37
2018-06-22T13:24:46.413Z,43.60
2018-06-22T13:27:17.030Z,43.40
2018-06-22T13:29:47.460Z,43.87
2018-06-22T13:32:17.862Z,43.93
2018-06-22T13:34:48.025Z,44.07
2018-06-22T13:37:18.385Z,43.70
2018-06-22T13:39:48.523Z,43.63
2018-06-22T13:42:18.977Z,43.87
2018-06-22T13:44:49.222Z,43.50
2018-06-22T13:47:20.078Z,44.40
2018-06-22T13:49:50.522Z,43.07
2018-06-22T13:52:20.772Z,43.20
2018-06-22T13:54:50.945Z,44.43
2018-06-22T13:57:21.416Z,44.47
2018-06-22T13:59:52.034Z,44.77
2018-06-22T14:02:22.329Z,44.53
2018-06-22T14:04:58.277Z,44.70
2018-06-22T14:07:28.601Z,45.30
2018-06-22T14:09:58.802Z,45.53
2018-06-22T14:12:29.008Z,45.90
2018-06-22T14:15:00.045Z,45.90
2018-06-22T14:17:30.597Z,46.60
2018-06-22T14:20:00.889Z,45.57
2018-06-22T14:22:31.138Z,51.60
2018-06-22T14:25:01.666Z,46.00
2018-06-22T14:27:31.931Z,46.43
2018-06-22T14:30:02.344Z,46.40
2018-06-22T14:32:32.665Z,46.20
2018-06-22T14:35:03.552Z,46.88
2018-06-22T14:37:34.190Z,46.42
2018-06-22T14:40:05.287Z,47.15
2018-06-22T14:42:36.016Z,46.83
2018-06-22T14:45:06.396Z,47.00
2018-06-22T14:47:37.843Z,46.68
2018-06-22T14:50:12.451Z,46.37
2018-06-22T14:52:43.223Z,47.30
2018-06-22T14:55:19.158Z,47.85
2018-06-22T14:57:54.725Z,47.15
2018-06-22T15:00:30.891Z,47.95
2018-06-22T15:03:06.394Z,47.58
2018-06-22T15:05:41.869Z,47.98
2018-06-22T15:08:15.245Z,47.50
2018-06-22T15:10:46.665Z,48.80
2018-06-22T15:13:17.731Z,48.40
2018-06-22T15:15:48.096Z,47.93
2018-06-22T15:18:18.605Z,48.17
2018-06-22T15:20:49.165Z,47.75
2018-06-22T15:23:21.089Z,48.95
2018-06-22T15:25:53.028Z,47.95
2018-06-22T15:28:24.010Z,48.90
2018-06-22T15:30:56.117Z,47.95
2018-06-22T15:33:31.458Z,47.43
2018-06-22T15:36:06.767Z,48.92
2018-06-22T15:38:45.956Z,48.17
2018-06-22T15:41:23.830Z,53.17
2018-06-22T15:44:02.334Z,48.55
2018-06-22T15:46:38.403Z,47.80
2018-06-22T15:49:14.878Z,46.83
2018-06-22T15:51:52.074Z,48.15
2018-06-22T15:54:27.710Z,47.45
2018-06-22T15:56:57.765Z,47.85
2018-06-22T15:59:28.533Z,47.38
2018-06-22T16:02:03.046Z,47.13
2018-06-22T16:04:33.980Z,53.65
2018-06-22T16:07:04.246Z,48.60
2018-06-22T16:09:39.004Z,46.98
2018-06-22T16:12:14.627Z,47.03
2018-06-22T16:14:49.966Z,47.40
2018-06-22T16:17:25.874Z,47.58
2018-06-22T16:20:01.467Z,47.20
2018-06-22T16:22:37.182Z,48.68
2018-06-22T16:25:12.633Z,47.38
2018-06-22T16:27:45.575Z,48.17
2018-06-22T16:30:16.061Z,47.00
2018-06-22T16:32:46.485Z,47.45
2018-06-22T16:35:17.103Z,46.80
2018-06-22T16:37:47.994Z,46.70
2018-06-22T16:40:18.480Z,46.73
2018-06-22T16:42:50.234Z,47.62
2018-06-22T16:45:20.834Z,47.80
2018-06-22T16:47:51.250Z,46.63
2018-06-22T16:50:21.618Z,47.60
2018-06-22T16:52:52.720Z,46.88
2018-06-22T16:55:23.476Z,46.83
2018-06-22T16:57:54.313Z,46.23
2018-06-22T17:00:25.501Z,46.70
2018-06-22T17:02:56.804Z,46.53
2018-06-22T17:05:27.339Z,46.70
2018-06-22T17:08:02.517Z,47.03
2018-06-22T17:10:37.764Z,47.20
2018-06-22T17:13:13.154Z,47.27
2018-06-22T17:15:49.094Z,47.73
2018-06-22T17:18:24.265Z,47.37
2018-06-22T17:20:54.762Z,47.33
2018-06-22T17:23:25.000Z,46.67
2018-06-22T17:25:55.225Z,45.90
2018-06-22T17:28:25.572Z,46.43
2018-06-22T17:30:56.366Z,45.70
2018-06-22T17:33:26.820Z,46.00
2018-06-22T17:35:58.044Z,47.03
2018-06-22T17:38:28.282Z,47.27
2018-06-22T17:40:58.586Z,46.90
2018-06-22T17:43:28.990Z,47.03
2018-06-22T17:45:59.184Z,47.37
2018-06-22T17:48:29.494Z,46.73
2018-06-22T17:51:00.235Z,51.03
2018-06-22T17:53:30.722Z,47.53
2018-06-22T17:56:01.766Z,48.53
2018-06-22T17:58:32.256Z,50.33
2018-06-22T18:01:07.761Z,49.10
2018-06-22T18:03:43.383Z,48.17
2018-06-22T18:06:20.055Z,50.17
2018-06-22T18:08:51.038Z,61.57
2018-06-22T18:13:34.083Z,47.57
2018-06-22T18:16:04.776Z,46.03
2018-06-22T18:18:36.496Z,50.13
2018-06-22T18:21:07.919Z,55.30
2018-06-22T18:23:39.993Z,50.50
2018-06-22T18:26:10.829Z,46.87
2018-06-22T18:28:42.327Z,46.63
2018-06-22T18:31:12.678Z,46.47
2018-06-22T18:33:43.320Z,47.10
2018-06-22T18:36:13.842Z,46.97
2018-06-22T18:38:45.134Z,55.30
2018-06-22T18:41:17.173Z,48.17
2018-06-22T18:43:52.590Z,55.03
2018-06-22T18:46:23.477Z,57.23
2018-06-22T18:48:57.083Z,57.67
2018-06-22T18:51:28.081Z,50.97
2018-06-22T18:54:03.493Z,47.00
2018-06-22T18:56:39.903Z,46.53
2018-06-22T18:59:15.389Z,50.90
2018-06-22T19:01:51.515Z,47.00
2018-06-22T19:04:22.557Z,47.10
2018-06-22T19:06:56.712Z,48.30
2018-06-22T19:09:27.750Z,48.50
2018-06-22T19:11:58.197Z,48.03
2018-06-22T19:14:29.054Z,45.07
2018-06-22T19:16:59.829Z,46.20
2018-06-22T19:19:30.443Z,46.37
2018-06-22T19:22:02.316Z,47.30
2018-06-22T19:24:32.641Z,48.50
2018-06-22T19:27:03.246Z,50.70
2018-06-22T19:29:34.275Z,47.17
2018-06-22T19:32:05.438Z,48.33
2018-06-22T19:34:41.363Z,49.70
2018-06-22T19:37:11.757Z,48.53
2018-06-22T19:39:42.642Z,45.53
2018-06-22T19:42:14.460Z,45.50
2018-06-22T19:44:52.202Z,45.80
2018-06-22T19:47:28.060Z,43.73
2018-06-22T19:50:03.888Z,44.63
2018-06-22T19:52:40.064Z,44.17
2018-06-22T19:55:10.936Z,43.97
2018-06-22T19:57:42.133Z,44.57
2018-06-22T20:00:13.253Z,43.70
2018-06-22T20:02:44.017Z,43.73
2018-06-22T20:05:14.990Z,43.73
2018-06-22T20:07:45.862Z,43.70
2018-06-22T20:10:16.552Z,43.50
2018-06-22T20:12:48.299Z,43.57
2018-06-22T20:15:23.728Z,43.07
2018-06-22T20:17:56.017Z,44.03
2018-06-22T20:20:27.977Z,42.90
2018-06-22T20:23:01.384Z,42.63
2018-06-22T20:25:36.688Z,43.50
2018-06-22T20:28:07.272Z,43.60
2018-06-22T20:30:37.569Z,43.80
2018-06-22T20:33:08.185Z,42.87
2018-06-22T20:35:43.234Z,43.87
2018-06-22T20:38:18.772Z,43.30
2018-06-22T20:40:54.769Z,43.97
2018-06-22T20:43:29.992Z,44.73
2018-06-22T20:46:00.610Z,44.47
2018-06-22T20:48:36.161Z,43.33
2018-06-22T20:51:06.950Z,44.10
2018-06-22T20:53:38.705Z,43.37
2018-06-22T20:56:08.879Z,43.53
2018-06-22T20:58:39.819Z,44.00
2018-06-22T21:01:10.508Z,43.80
2018-06-22T21:03:49.385Z,43.90
2018-06-22T21:06:22.745Z,44.23
2018-06-22T21:08:53.113Z,43.40
2018-06-22T21:11:23.500Z,42.97
2018-06-22T21:13:54.353Z,43.17
2018-06-22T21:16:24.580Z,43.43
2018-06-22T21:18:54.911Z,43.43
2018-06-22T21:22:30.697Z,42.70
2018-06-22T21:25:01.347Z,43.00
2018-06-22T21:27:40.722Z,43.47
2018-06-22T21:30:17.464Z,43.13
2018-06-22T21:32:53.782Z,44.23
2018-06-22T21:35:29.020Z,43.07
2018-06-22T21:38:12.991Z,42.97
2018-06-22T21:40:43.241Z,42.50
2018-06-22T21:43:15.177Z,42.43
2018-06-22T21:45:45.472Z,41.77
2018-06-22T21:48:15.566Z,42.40
2018-06-22T21:50:48.038Z,42.57
2018-06-22T21:53:30.810Z,42.90
2018-06-22T21:56:10.369Z,42.80
2018-06-22T21:58:42.600Z,42.23
2018-06-22T22:01:16.569Z,41.67
2018-06-22T22:03:47.895Z,41.13
2018-06-22T22:06:27.026Z,41.77
2018-06-22T22:09:02.935Z,41.53
2018-06-22T22:11:40.876Z,42.33
2018-06-22T22:14:11.829Z,41.80
2018-06-22T22:16:43.247Z,41.67
2018-06-22T22:19:15.418Z,42.83
2018-06-22T22:21:48.967Z,41.43
2018-06-22T22:24:19.981Z,41.77
2018-06-22T22:26:51.162Z,41.27
2018-06-22T22:29:23.392Z,41.47
2018-06-22T22:31:59.673Z,43.27
2018-06-22T22:34:30.874Z,41.73
2018-06-22T22:37:19.958Z,41.27
2018-06-22T22:39:57.079Z,41.87
2018-06-22T22:42:50.782Z,42.20
2018-06-22T22:45:22.825Z,41.90
2018-06-22T22:47:53.251Z,41.57
2018-06-22T22:50:24.154Z,41.27
2018-06-22T22:52:54.639Z,41.33
2018-06-22T22:55:25.332Z,41.33
2018-06-22T22:57:55.981Z,42.30
2018-06-22T23:00:28.087Z,41.27
2018-06-22T23:02:58.379Z,40.97
2018-06-22T23:05:28.490Z,41.57
2018-06-22T23:07:58.785Z,41.30
2018-06-22T23:10:29.146Z,40.83
2018-06-22T23:12:59.567Z,40.97
2018-06-22T23:15:30.835Z,41.30
2018-06-22T23:18:04.594Z,40.33
2018-06-22T23:20:36.018Z,40.67
2018-06-22T23:23:23.031Z,40.47
2018-06-22T23:25:53.429Z,41.30
2018-06-22T23:28:24.382Z,40.37
2018-06-22T23:30:55.850Z,39.80
2018-06-22T23:33:26.854Z,40.03
2018-06-22T23:35:57.472Z,41.03
2018-06-22T23:38:28.643Z,40.50
2018-06-22T23:40:59.891Z,41.63
2018-06-22T23:43:30.680Z,40.97
2018-06-22T23:46:01.368Z,40.83
2018-06-22T23:48:32.296Z,40.27
2018-06-22T23:51:03.418Z,40.10
2018-06-22T23:53:34.562Z,40.40
2018-06-22T23:56:05.514Z,40.23
2018-06-22T23:58:36.331Z,40.67
